Oriente Gloria — 3FAO2 — position and weather

sailwx.info

Track history (hours):
 
Tides and Currents Weather Stations Pressure Air Temp Water Temp Dewpoint Dewpoint Depression Visibility Wind Speed Wind Dir Waves Ship Positions

Oriente Gloria

Last reported at 2018-Jul-09 14:31 UTC. Time now 2018-Jul-17 01:54 UTC.
Position N 01°21' E 103°18'.

Length 199 m; draft 12.5 m.

Type: Cargo ship. MMSI: 373981000.

Date/timePositionNaut miles runAvg speedWind from/ knotsBaromVisibWave heightAir tempDewpointWater temp
2018-Jul-09 14:31N 01°21' E 103°18'112.6
2018-Jul-09 14:28N 01°20' E 103°18'611.5
2018-Jul-09 13:58N 01°16' E 103°22'510.7
2018-Jul-09 13:30N 01°14' E 103°27'611.0
2018-Jul-09 12:58N 01°12' E 103°32'611.4
2018-Jul-09 12:28N 01°11' E 103°38'511.1
2018-Jul-09 12:00N 01°09' E 103°43'510.3
2018-Jul-09 11:30N 01°10' E 103°48'611.3
2018-Jul-09 11:01N 01°13' E 103°53'510.6
2018-Jul-09 10:30N 01°15' E 103°58'4 7.7
2018-Jul-09 09:58N 01°17' E 104°01'1 1.5
2018-Jul-09 09:28N 01°17' E 104°01'0 0.0
2018-Jul-09 08:52N 01°17' E 104°01'0 0.0
2018-Jul-09 08:22N 01°17' E 104°01'0 0.0
2018-Jul-09 07:54N 01°17' E 104°01'0 0.0
2018-Jul-09 07:22N 01°17' E 104°01'0 0.0
2018-Jul-09 06:58N 01°17' E 104°01'0 0.0
2018-Jul-09 06:28N 01°17' E 104°01'0 0.1
2018-Jul-09 05:49N 01°17' E 104°01'0 0.3
2018-Jul-09 05:25N 01°17' E 104°01'0 0.2
2018-Jul-09 04:46N 01°17' E 104°01'0 0.0
2018-Jul-09 04:22N 01°17' E 104°01'0 0.0
2018-Jul-09 03:55N 01°17' E 104°01'0 0.3
2018-Jul-09 03:30N 01°17' E 104°01'2 3.9
2018-Jul-09 03:00N 01°16' E 103°59'2 4.9
2018-Jul-09 02:30N 01°16' E 104°02'4 8.1
2018-Jul-09 01:59N 01°17' E 104°06'3 6.8
2018-Jul-09 01:30N 01°17' E 104°09'4 7.9
2018-Jul-09 00:58N 01°17' E 104°13'4 8.3
2018-Jul-09 00:30N 01°18' E 104°17'4 7.0
2018-Jul-08 23:58N 01°20' E 104°21'4 8.9
2018-Jul-08 23:30N 01°22' E 104°24'5 8.8
2018-Jul-08 22:57N 01°25' E 104°27'4 7.9
2018-Jul-08 22:28N 01°28' E 104°30'  
Track history (hours):
 
Tides and Currents Weather Stations Pressure Air Temp Water Temp Dewpoint Dewpoint Depression Visibility Wind Speed Wind Dir Waves Ship Positions

Oriente Gloria

Last reported at 2018-Jul-09 14:31 UTC. Time now 2018-Jul-17 01:54 UTC.
Position N 01°21' E 103°18'.

Length 199 m; draft 12.5 m.

Type: Cargo ship. MMSI: 373981000.

Date/timePositionNaut miles runAvg speedWind from/ knotsBaromVisibWave heightAir tempDewpointWater temp
2018-Jul-09 14:31N 01°21' E 103°18'112.6
2018-Jul-09 14:28N 01°20' E 103°18'611.5
2018-Jul-09 13:58N 01°16' E 103°22'510.7
2018-Jul-09 13:30N 01°14' E 103°27'611.0
2018-Jul-09 12:58N 01°12' E 103°32'611.4
2018-Jul-09 12:28N 01°11' E 103°38'511.1
2018-Jul-09 12:00N 01°09' E 103°43'510.3
2018-Jul-09 11:30N 01°10' E 103°48'611.3
2018-Jul-09 11:01N 01°13' E 103°53'510.6
2018-Jul-09 10:30N 01°15' E 103°58'4 7.7
2018-Jul-09 09:58N 01°17' E 104°01'1 1.5
2018-Jul-09 09:28N 01°17' E 104°01'0 0.0
2018-Jul-09 08:52N 01°17' E 104°01'0 0.0
2018-Jul-09 08:22N 01°17' E 104°01'0 0.0
2018-Jul-09 07:54N 01°17' E 104°01'0 0.0
2018-Jul-09 07:22N 01°17' E 104°01'0 0.0
2018-Jul-09 06:58N 01°17' E 104°01'0 0.0
2018-Jul-09 06:28N 01°17' E 104°01'0 0.1
2018-Jul-09 05:49N 01°17' E 104°01'0 0.3
2018-Jul-09 05:25N 01°17' E 104°01'0 0.2
2018-Jul-09 04:46N 01°17' E 104°01'0 0.0
2018-Jul-09 04:22N 01°17' E 104°01'0 0.0
2018-Jul-09 03:55N 01°17' E 104°01'0 0.3
2018-Jul-09 03:30N 01°17' E 104°01'2 3.9
2018-Jul-09 03:00N 01°16' E 103°59'2 4.9
2018-Jul-09 02:30N 01°16' E 104°02'4 8.1
2018-Jul-09 01:59N 01°17' E 104°06'3 6.8
2018-Jul-09 01:30N 01°17' E 104°09'4 7.9
2018-Jul-09 00:58N 01°17' E 104°13'4 8.3
2018-Jul-09 00:30N 01°18' E 104°17'4 7.0
2018-Jul-08 23:58N 01°20' E 104°21'4 8.9
2018-Jul-08 23:30N 01°22' E 104°24'5 8.8
2018-Jul-08 22:57N 01°25' E 104°27'4 7.9
2018-Jul-08 22:28N 01°28' E 104°30'  

Dump ship's entire track history